• Join FlightAware (Why Join?)
  • Login
  • US Flag 
05:03AM EDT


 

Airport Tracker/Info


-or-


 

Live Flight TrackerFlight Track Log ✈ UAL481 ✈ 11-Oct-2013 ✈ KALB - KORD

Flight Track Log - Related Links

Times and Time Zones

All times are in EDT time to prevent confusion due to time zone crossing. See the UAL481 flight status page for this flight to view local times or setup timezone preferences in your user account.

Time Position Orientation Groundspeed Altitude Reporting Facility
EDT Latitude Longitude Course Direction KTS MPH feet Rate Location/Type
06:08PM 42.7672 -73.8089 293° West 160 184 1,400  Level Boston Center
06:09PM 42.7958 -73.8519 312° West 206 237 2,600 2,400 Climbing Boston Center
06:10PM 42.8386 -73.9436 302° West 292 336 5,800 3,240 Climbing Boston Center
06:11PM 42.8628 -73.9953 303° West 302 348 8,000 2,580 Climbing Boston Center
06:12PM 42.7519 -74.3774 286° West  Level Estimated
06:12PM 42.9075 -74.0786 306° West 308 354 10,100  Level Boston Center
06:13PM 42.7930 -74.5100 293° West  Level FlightAware Approximate
06:13PM 42.9722 -74.2108 304° West 362 417 11,300  Level Boston Center
06:14PM 43.0181 -74.3369 296° West 406 467 13,700 2,520 Climbing Boston Center
06:15PM 43.0339 -74.5108 277° West 412 474 16,500 2,580 Climbing Boston Center
06:16PM 43.0517 -74.6706 279° West 421 484 18,900 1,680 Climbing Boston Center
06:17PM 43.0592 -74.8186 274° West 429 494 20,000 1,320 Climbing Boston Center
06:18PM 43.0742 -74.9925 277° West 447 514 21,600 1,620 Climbing Boston Center
06:19PM 43.0869 -75.1667 276° West 459 528 23,200 1,200 Climbing Boston Center
06:20PM 43.0908 -75.3458 272° West 470 541 24,000 1,020 Climbing Boston Center
06:21PM 43.0964 -75.5283 272° West 477 549 25,300 1,380 Climbing Boston Center
06:22PM 43.0833 -75.8500 267° West 480 552 27,900 1,500 Climbing Toronto Center
06:23PM 43.0833 -76.0000 270° West 460 529 29,400 1,200 Climbing Toronto Center
06:24PM 43.1017 -76.1361 280° West 460 529 29,900 900 Climbing Cleveland Center
06:25PM 43.1031 -76.3114 271° West 461 531 31,000 1,020 Climbing Cleveland Center
06:26PM 43.1042 -76.4875 271° West 462 532 32,100 1,140 Climbing Cleveland Center
06:27PM 43.1047 -76.6611 270° West 460 529 33,400 1,200 Climbing Cleveland Center
06:28PM 43.1056 -76.8689 270° West 460 529 34,700 1,140 Climbing Cleveland Center
06:29PM 43.1061 -77.0406 270° West 457 526 35,800 600 Climbing Cleveland Center
06:30PM 43.1058 -77.2103 270° West 452 520 36,000 60 Climbing Cleveland Center
06:31PM 43.1058 -77.3822 270° West 455 524 36,000  Level Cleveland Center
06:32PM 43.1053 -77.5533 270° West 456 525 36,000  Level Cleveland Center
06:33PM 43.1042 -77.7586 270° West 455 524 36,000  Level Cleveland Center
06:34PM 43.1031 -77.9300 270° West 455 524 36,000  Level Cleveland Center
06:35PM 43.1022 -78.1017 270° West 456 525 36,000  Level Cleveland Center
06:36PM 43.1011 -78.2753 270° West 458 527 36,000  Level Cleveland Center
06:37PM 43.0989 -78.4831 269° West 458 527 36,000  Level Cleveland Center
06:38PM 43.0958 -78.6581 269° West 464 534 36,000  Level Cleveland Center
06:39PM 43.0944 -78.8306 269° West 456 525 36,000  Level Cleveland Center
06:40PM 43.0906 -79.0050 268° West 459 528 36,000  Level Cleveland Center
06:42PM 43.0886 -79.1764 269° West 453 521 36,000  Level Cleveland Center
06:43PM 43.0850 -79.3483 268° West 455 524 36,000  Level Cleveland Center
06:44PM 43.0811 -79.5558 269° West 456 525 36,000  Level Cleveland Center
06:44PM 43.0667 -79.6500 258° West 460 529 36,000  Level Toronto Center
06:45PM 43.0667 -79.8333 270° West 460 529 36,000  Level Toronto Center
06:46PM 43.0667 -80.0000 270° West 460 529 36,000  Level Toronto Center
06:47PM 43.0500 -80.1833 263° West 460 529 36,000  Level Toronto Center
06:48PM 43.0500 -80.3667 270° West 460 529 36,000  Level Toronto Center
06:49PM 43.0500 -80.5167 270° West 460 529 36,000  Level Toronto Center
06:50PM 43.0500 -80.7000 270° West 460 529 36,000  Level Toronto Center
06:51PM 43.0333 -80.8667 262° West 460 529 36,000  Level Toronto Center
06:52PM 43.0167 -81.0500 263° West 460 529 36,000  Level Toronto Center
06:53PM 43.0167 -81.2333 270° West 460 529 36,000  Level Toronto Center
06:54PM 43.0167 -81.3833 270° West 450 518 36,000  Level Toronto Center
06:55PM 43.0167 -81.5667 270° West 450 518 36,000  Level Toronto Center
06:56PM 43.0167 -81.7333 270° West 450 518 36,000  Level Toronto Center
06:57PM 43.0000 -81.9167 263° West 450 518 36,000  Level Toronto Center
06:58PM 43.0000 -82.0667 270° West 450 518 36,000  Level Toronto Center
06:59PM 43.0000 -82.2500 270° West 450 518 36,000  Level Toronto Center
07:00PM 43.0000 -82.4167 270° West 450 518 36,000  Level Toronto Center
07:01PM 43.0000 -82.6000 270° West 450 518 36,000  Level Toronto Center
07:02PM 42.9983 -82.7322 269° West 452 520 36,000 -60 Level Cleveland Center
07:03PM 42.9856 -82.9331 265° West 447 514 35,900 -360 Descending Cleveland Center
07:04PM 42.9756 -83.1031 265° West 451 519 35,300 -660 Descending Cleveland Center
07:05PM 42.9675 -83.2728 266° West 454 522 34,600 -720 Descending Cleveland Center
07:06PM 42.9558 -83.4394 265° West 448 516 33,900 -720 Descending Cleveland Center
07:07PM 42.9469 -83.6064 266° West 446 513 33,200 -480 Descending Cleveland Center
07:08PM 42.9342 -83.8122 265° West 455 524 33,000 -480 Descending Cleveland Center
07:09PM 42.9236 -83.9825 265° West 455 524 32,300 -540 Descending Cleveland Center
07:10PM 42.9131 -84.1525 265° West 453 521 32,000 -180 Descending Cleveland Center
07:12PM 42.9011 -84.3383 265° West 459 528 32,000  Level Cleveland Center
07:12PM 42.8936 -84.4436 264° West 461 531 32,000  Level Chicago Center
07:13PM 42.8772 -84.6519 264° West 461 531 32,000  Level Chicago Center
07:14PM 42.8594 -84.8250 262° West 462 532 32,000 -240 Level Chicago Center
07:20PM 42.7450 -85.7070 262° West 100 115 30,600 -240 Descending FlightAware
07:20PM 42.7420 -85.7280 259° West 100 115 30,600  Level FlightAware
07:21PM 42.7400 -85.7480 262° West 100 115 30,600  Level FlightAware
07:22PM 42.7370 -85.7670 258° West 100 115 30,600 -8,100 Level FlightAware
07:22PM 42.6570 -86.1350 254° West 444 511 20,100 -7,980 Descending FlightAware
07:23PM 42.6420 -86.2250 257° West 444 511 20,000 -120 Descending FlightAware
07:24PM 42.6280 -86.3090 257° West 444 511 20,000  Level FlightAware
07:24PM 42.6140 -86.3920 257° West 444 511 20,000  Level FlightAware
07:25PM 42.6000 -86.4750 257° West 444 511 20,000  Level FlightAware
07:25PM 42.5850 -86.5580 256° West 444 511 20,000  Level FlightAware
07:26PM 42.5710 -86.6440 258° West 444 511 20,000 -6,720 Level FlightAware
07:26PM 42.5290 -86.7630 244° Southwest 444 511 13,000 -5,820 Descending FlightAware
07:27PM 42.5070 -86.8710 255° West 392 451 12,200 -1,440 Descending FlightAware
07:28PM 42.4850 -86.9680 253° West 396 456 10,900 -1,140 Descending FlightAware
07:29PM 42.4700 -87.0410 254° West 396 456 10,900  Level FlightAware
07:29PM 42.4540 -87.1140 253° West 396 456 10,900 -1,440 Level FlightAware
07:30PM 42.4211 -87.2300 253° West 298 343 9,100 -1,920 Descending Chicago Center
07:31PM 42.3950 -87.3286 250° West 280 322 7,700 -1,080 Descending Chicago Center
07:32PM 42.3661 -87.4389 251° West 269 310 6,900 -360 Descending Chicago Center
07:33PM 42.3297 -87.5269 241° Southwest 272 313 7,000  Climbing Chicago Center
07:34PM 42.2719 -87.5911 219° Southwest 267 307 6,900 -660 Descending Chicago Center
07:35PM 42.2175 -87.6550 221° Southwest 263 303 5,700 -1,020 Descending Chicago Center
07:36PM 42.1667 -87.7108 219° Southwest 245 282 4,900 -960 Descending Chicago Center
07:37PM 42.1214 -87.7614 220° Southwest 228 262 3,800 -1,260 Descending Chicago Center
07:38PM 42.0667 -87.8167 217° Southwest 202 232 2,400 -1,140 Descending Chicago TRACON
07:39PM 42.0333 -87.8500 217° Southwest 156 180 1,600 -780 Descending Chicago TRACON
07:40PM 42.0000 -87.8833 217° Southwest 138 159 900 -720 Descending Chicago TRACON